Time;durP1;ratioP1;P1;durP2;ratioP2;P2;SDS_P1;SDS_P2;PMS_P1;PMS_P2;Temp;Humidity;BMP_temperature;BMP_pressure;BME280_temperature;BME280_humidity;BME280_pressure;Samples;Min_cycle;Max_cycle;Signal;HPM_P1;HPM_P2
2023/11/17 00:01:44;;;;;;;1.00;0.50;;;7.80;99.90;;;;;;5115428;28;20435;-52
2023/11/17 00:04:14;;;;;;;0.70;0.40;;;7.70;99.90;;;;;;5115298;28;20415;-52
2023/11/17 00:06:41;;;;;;;0.75;0.43;;;7.50;99.90;;;;;;5116565;28;20447;-48
2023/11/17 00:09:10;;;;;;;0.90;0.50;;;7.60;99.90;;;;;;5116777;28;20434;-53
2023/11/17 00:11:37;;;;;;;0.90;0.40;;;7.60;99.90;;;;;;5115968;28;20507;-52
2023/11/17 00:14:06;;;;;;;1.30;0.40;;;7.60;99.90;;;;;;5115826;28;20785;-52
2023/11/17 00:16:35;;;;;;;0.70;0.40;;;7.40;99.90;;;;;;5115154;28;20822;-53
2023/11/17 00:19:05;;;;;;;1.10;0.50;;;7.20;99.90;;;;;;5115193;28;20435;-52
2023/11/17 00:21:34;;;;;;;0.70;0.40;;;7.20;99.90;;;;;;5116095;28;20777;-50
2023/11/17 00:24:03;;;;;;;0.57;0.30;;;7.20;99.90;;;;;;5115505;28;20456;-53
2023/11/17 00:26:31;;;;;;;0.88;0.40;;;7.30;99.90;;;;;;5115633;28;20416;-53
2023/11/17 00:28:59;;;;;;;0.60;0.30;;;7.20;99.90;;;;;;5113639;28;20531;-52
2023/11/17 00:31:28;;;;;;;1.00;0.30;;;7.40;99.90;;;;;;5114272;28;20477;-55
2023/11/17 00:33:57;;;;;;;0.50;0.30;;;7.20;99.90;;;;;;5114105;28;20438;-53
2023/11/17 00:36:24;;;;;;;0.90;0.30;;;7.20;99.90;;;;;;5114713;28;20996;-51
2023/11/17 00:38:52;;;;;;;0.80;0.30;;;7.20;99.90;;;;;;5116200;28;20422;-54
2023/11/17 00:41:19;;;;;;;0.60;0.30;;;7.10;99.90;;;;;;5116304;28;20428;-54
2023/11/17 00:43:46;;;;;;;0.60;0.30;;;7.20;99.90;;;;;;5116340;28;20415;-54
2023/11/17 00:46:13;;;;;;;0.60;0.30;;;7.10;99.90;;;;;;5115986;28;20849;-52
2023/11/17 00:48:41;;;;;;;1.10;0.30;;;7.10;99.90;;;;;;5116346;28;20449;-52
2023/11/17 00:51:09;;;;;;;0.50;0.30;;;7.10;99.90;;;;;;5115056;28;20831;-49
2023/11/17 00:53:36;;;;;;;0.50;0.30;;;7.10;99.90;;;;;;5114875;28;20422;-52
2023/11/17 00:56:04;;;;;;;0.50;0.30;;;7.10;99.90;;;;;;5114354;28;20723;-54
2023/11/17 00:58:31;;;;;;;1.20;0.30;;;7.20;99.90;;;;;;5114745;28;20416;-53
2023/11/17 01:00:58;;;;;;;0.50;0.20;;;7.20;99.90;;;;;;5115474;28;20420;-53
2023/11/17 01:03:26;;;;;;;0.45;0.20;;;7.20;99.90;;;;;;5115981;28;20443;-52
2023/11/17 01:05:53;;;;;;;0.57;0.20;;;7.20;99.90;;;;;;5115253;28;20808;-53
2023/11/17 01:08:22;;;;;;;0.80;0.20;;;7.20;99.90;;;;;;5115117;28;20707;-48
2023/11/17 01:10:50;;;;;;;0.40;0.20;;;7.20;99.90;;;;;;5114998;28;20528;-50
2023/11/17 01:13:17;;;;;;;0.70;0.30;;;7.20;99.90;;;;;;5115760;28;20440;-52
2023/11/17 01:15:44;;;;;;;0.60;0.20;;;7.20;99.90;;;;;;5114931;28;20487;-56
2023/11/17 01:18:11;;;;;;;0.40;0.20;;;7.30;99.90;;;;;;5114514;28;20420;-53
2023/11/17 01:20:40;;;;;;;0.65;0.30;;;7.20;99.90;;;;;;5115619;28;20421;-53
2023/11/17 01:23:08;;;;;;;0.40;0.20;;;7.10;99.90;;;;;;5113985;28;20909;-53
2023/11/17 01:25:37;;;;;;;0.50;0.20;;;7.20;99.90;;;;;;5115317;28;20430;-52
2023/11/17 01:28:06;;;;;;;0.40;0.20;;;7.20;99.90;;;;;;5114982;28;20421;-51
2023/11/17 01:30:34;;;;;;;0.40;0.20;;;7.30;99.90;;;;;;5115705;28;20424;-53
2023/11/17 01:33:01;;;;;;;0.50;0.20;;;7.20;99.90;;;;;;5115796;28;20424;-52
2023/11/17 01:35:29;;;;;;;0.50;0.20;;;7.30;99.90;;;;;;5115275;28;20432;-54
2023/11/17 01:37:56;;;;;;;0.50;0.20;;;7.30;99.90;;;;;;5115360;28;20424;-55
2023/11/17 01:40:24;;;;;;;0.80;0.20;;;7.40;99.90;;;;;;5115499;28;20428;-54
2023/11/17 01:42:52;;;;;;;0.80;0.20;;;7.50;99.90;;;;;;5115981;28;20463;-51
2023/11/17 01:45:21;;;;;;;0.50;0.30;;;7.50;99.90;;;;;;5115220;28;20416;-57
2023/11/17 01:47:48;;;;;;;0.50;0.30;;;7.50;99.90;;;;;;5115426;28;20423;-53
2023/11/17 01:50:16;;;;;;;0.70;0.25;;;7.30;99.90;;;;;;5115460;28;20420;-54
2023/11/17 01:52:44;;;;;;;0.50;0.30;;;7.30;99.90;;;;;;5115182;28;20419;-54
2023/11/17 01:55:12;;;;;;;0.40;0.30;;;7.30;99.90;;;;;;5115026;28;20430;-50
2023/11/17 01:57:40;;;;;;;0.60;0.40;;;7.30;99.90;;;;;;5115362;28;20420;-51
2023/11/17 02:00:13;;;;;;;0.70;0.30;;;7.30;99.90;;;;;;5115068;28;20426;-49
2023/11/17 02:02:44;;;;;;;0.60;0.30;;;7.40;99.90;;;;;;5115018;28;20724;-49
2023/11/17 02:05:12;;;;;;;0.70;0.40;;;7.50;99.90;;;;;;5114126;28;20420;-51
2023/11/17 02:07:50;;;;;;;0.50;0.30;;;7.40;99.90;;;;;;5113377;28;20408;-50
2023/11/17 02:10:23;;;;;;;0.50;0.30;;;7.50;99.90;;;;;;5112966;28;20473;-50
2023/11/17 02:13:00;;;;;;;0.60;0.30;;;7.50;99.90;;;;;;5112361;28;20428;-50
2023/11/17 02:15:35;;;;;;;0.70;0.30;;;7.40;99.90;;;;;;5113289;28;20432;-49
2023/11/17 02:18:10;;;;;;;0.70;0.40;;;7.40;99.90;;;;;;5113154;28;20416;-51
2023/11/17 02:20:38;;;;;;;0.60;0.38;;;7.40;99.90;;;;;;5113677;28;20842;-55
2023/11/17 02:23:10;;;;;;;0.63;0.40;;;7.40;99.90;;;;;;5114331;28;20427;-51
2023/11/17 02:25:50;;;;;;;0.70;0.40;;;7.50;99.90;;;;;;5113993;28;20409;-52
2023/11/17 02:28:30;;;;;;;0.70;0.40;;;7.50;99.90;;;;;;5118142;28;20839;-50
2023/11/17 02:31:12;;;;;;;0.70;0.30;;;7.60;99.90;;;;;;5118542;28;20481;-48
2023/11/17 02:33:41;;;;;;;1.10;0.40;;;7.60;99.90;;;;;;5118418;28;20420;-52
2023/11/17 02:36:17;;;;;;;0.70;0.40;;;7.60;99.90;;;;;;5117232;28;20726;-49
2023/11/17 02:38:51;;;;;;;0.70;0.40;;;7.70;99.90;;;;;;5118357;28;20519;-50
2023/11/17 02:41:29;;;;;;;0.60;0.40;;;7.60;99.90;;;;;;5118139;28;20428;-51
2023/11/17 02:43:58;;;;;;;0.80;0.40;;;7.60;99.90;;;;;;5118059;28;20419;-53
2023/11/17 02:46:32;;;;;;;0.80;0.50;;;7.60;99.90;;;;;;5117839;28;20405;-53
2023/11/17 02:49:03;;;;;;;0.87;0.50;;;7.60;99.90;;;;;;5117995;28;20424;-52
2023/11/17 02:51:43;;;;;;;0.70;0.50;;;7.60;99.90;;;;;;5118932;28;20428;-53
2023/11/17 02:54:13;;;;;;;0.90;0.50;;;7.70;99.90;;;;;;5118341;28;20470;-54
2023/11/17 02:56:41;;;;;;;1.10;0.40;;;7.90;99.90;;;;;;5117712;28;20435;-51
2023/11/17 02:59:10;;;;;;;0.80;0.50;;;7.90;99.90;;;;;;5118267;28;20424;-53
2023/11/17 03:01:40;;;;;;;1.15;0.40;;;7.80;99.90;;;;;;5118356;28;20703;-55
2023/11/17 03:04:13;;;;;;;0.80;0.50;;;7.80;99.90;;;;;;5118261;28;20412;-54
2023/11/17 03:06:45;;;;;;;1.60;0.63;;;7.70;99.90;;;;;;5118110;28;20518;-54
2023/11/17 03:09:14;;;;;;;1.30;0.50;;;7.70;99.90;;;;;;5116749;28;20432;-50
2023/11/17 03:11:44;;;;;;;1.00;0.50;;;7.70;99.90;;;;;;5118076;28;20424;-54
2023/11/17 03:14:11;;;;;;;0.85;0.40;;;7.90;99.90;;;;;;5117568;28;20450;-53
2023/11/17 03:16:39;;;;;;;0.70;0.40;;;7.70;99.90;;;;;;5117217;28;20428;-52
2023/11/17 03:19:10;;;;;;;1.17;0.40;;;7.50;99.90;;;;;;5116653;28;20416;-54
2023/11/17 03:21:41;;;;;;;0.90;0.40;;;7.40;99.90;;;;;;5116018;28;20420;-54
2023/11/17 03:24:14;;;;;;;0.70;0.40;;;7.40;99.90;;;;;;5116725;28;20522;-53
2023/11/17 03:26:43;;;;;;;0.63;0.40;;;7.30;99.90;;;;;;5116511;28;20845;-49
2023/11/17 03:29:14;;;;;;;0.70;0.40;;;7.50;99.90;;;;;;5115941;28;20788;-51
2023/11/17 03:31:47;;;;;;;0.50;0.30;;;7.60;99.90;;;;;;5116346;28;20515;-55
2023/11/17 03:34:16;;;;;;;0.70;0.40;;;7.60;99.90;;;;;;5115833;28;20511;-54
2023/11/17 03:36:43;;;;;;;0.80;0.30;;;7.70;99.90;;;;;;5117860;28;20432;-49
2023/11/17 03:39:12;;;;;;;0.50;0.30;;;7.70;99.90;;;;;;5116294;28;20427;-50
2023/11/17 03:41:41;;;;;;;0.60;0.30;;;7.50;99.90;;;;;;5117433;28;20427;-53
2023/11/17 03:44:09;;;;;;;0.52;0.30;;;7.50;99.90;;;;;;5117532;28;20431;-52
2023/11/17 03:46:36;;;;;;;0.50;0.20;;;7.50;99.90;;;;;;5117050;28;20720;-53
2023/11/17 03:49:06;;;;;;;0.50;0.20;;;7.50;99.90;;;;;;5116886;28;20416;-48
2023/11/17 03:51:34;;;;;;;0.40;0.20;;;7.50;99.90;;;;;;5117084;28;20432;-51
2023/11/17 03:54:01;;;;;;;0.60;0.30;;;7.40;99.90;;;;;;5117364;28;20424;-55
2023/11/17 03:56:28;;;;;;;1.10;0.30;;;7.40;99.90;;;;;;5116950;28;20439;-52
2023/11/17 03:58:55;;;;;;;0.60;0.30;;;7.40;99.90;;;;;;5116641;28;20431;-54
2023/11/17 04:01:23;;;;;;;0.40;0.20;;;7.40;99.90;;;;;;5117338;28;20512;-52
2023/11/17 04:03:50;;;;;;;0.50;0.20;;;7.50;99.90;;;;;;5115728;28;20437;-52
2023/11/17 04:06:20;;;;;;;0.40;0.20;;;7.50;99.90;;;;;;5115511;28;20853;-54
2023/11/17 04:08:47;;;;;;;0.47;0.20;;;7.70;99.90;;;;;;5114899;28;20480;-54
2023/11/17 04:11:14;;;;;;;1.05;0.22;;;7.70;99.90;;;;;;5114270;28;20467;-52
2023/11/17 04:13:42;;;;;;;0.55;0.30;;;7.60;99.90;;;;;;5115106;28;20413;-53
2023/11/17 04:16:11;;;;;;;0.65;0.30;;;7.60;99.90;;;;;;5114870;28;20428;-49
2023/11/17 04:18:39;;;;;;;0.50;0.30;;;7.70;99.90;;;;;;5114786;28;20416;-53
2023/11/17 04:21:06;;;;;;;0.60;0.30;;;7.60;99.90;;;;;;5114475;28;20849;-54
2023/11/17 04:23:35;;;;;;;0.50;0.30;;;7.60;99.90;;;;;;5114752;28;20488;-48
2023/11/17 04:26:02;;;;;;;0.57;0.20;;;7.60;99.90;;;;;;5114718;28;20412;-53
2023/11/17 04:28:30;;;;;;;0.80;0.30;;;7.70;99.90;;;;;;5114274;28;20775;-52
2023/11/17 04:30:56;;;;;;;0.40;0.30;;;7.70;99.90;;;;;;5115160;28;20427;-52
2023/11/17 04:33:24;;;;;;;1.50;0.30;;;7.70;99.90;;;;;;5114869;28;20416;-52
2023/11/17 04:35:51;;;;;;;0.50;0.30;;;7.80;99.90;;;;;;5116038;28;20428;-54
2023/11/17 04:38:18;;;;;;;0.40;0.20;;;7.90;99.90;;;;;;5116160;28;20420;-50
2023/11/17 04:40:47;;;;;;;1.10;0.30;;;7.90;99.90;;;;;;5116206;28;20420;-54
2023/11/17 04:43:14;;;;;;;0.60;0.30;;;7.70;99.90;;;;;;5115528;28;20753;-52
2023/11/17 04:45:43;;;;;;;1.15;0.30;;;7.70;99.90;;;;;;5114570;28;20711;-49
2023/11/17 04:48:11;;;;;;;0.95;0.30;;;7.60;99.90;;;;;;5113555;28;20518;-49
2023/11/17 04:50:39;;;;;;;1.02;0.30;;;7.60;99.90;;;;;;5112164;28;20420;-47
2023/11/17 04:53:06;;;;;;;0.50;0.20;;;7.60;99.90;;;;;;5112407;28;20423;-48
2023/11/17 04:55:34;;;;;;;0.50;0.30;;;7.60;99.90;;;;;;5113047;28;20464;-50
2023/11/17 04:58:03;;;;;;;0.43;0.30;;;7.50;99.90;;;;;;5112828;28;20638;-53
2023/11/17 05:00:32;;;;;;;0.90;0.30;;;7.40;99.90;;;;;;5112003;28;20424;-52
2023/11/17 05:03:00;;;;;;;0.50;0.30;;;7.40;99.90;;;;;;5112956;28;20439;-52
2023/11/17 05:05:27;;;;;;;0.40;0.20;;;7.70;99.90;;;;;;5113596;28;20423;-51
2023/11/17 05:07:56;;;;;;;0.90;0.22;;;7.70;99.90;;;;;;5113896;28;20424;-50
2023/11/17 05:10:24;;;;;;;0.50;0.20;;;7.50;99.90;;;;;;5112942;28;20847;-48
2023/11/17 05:12:52;;;;;;;1.20;0.30;;;7.60;99.90;;;;;;5115242;28;20423;-49
2023/11/17 05:15:22;;;;;;;0.60;0.30;;;7.50;99.90;;;;;;5115834;28;20726;-50
2023/11/17 05:17:49;;;;;;;0.88;0.30;;;7.40;99.90;;;;;;5115736;28;20835;-51
2023/11/17 05:20:18;;;;;;;0.40;0.20;;;7.40;99.90;;;;;;5116056;28;20419;-51
2023/11/17 05:22:46;;;;;;;0.60;0.30;;;7.20;99.90;;;;;;5115452;28;20491;-49
2023/11/17 05:25:14;;;;;;;0.70;0.30;;;7.10;99.90;;;;;;5115628;28;20419;-55
2023/11/17 05:27:45;;;;;;;0.70;0.30;;;7.10;99.90;;;;;;5114985;28;20416;-52
2023/11/17 05:30:13;;;;;;;0.50;0.20;;;7.20;99.90;;;;;;5115217;28;20424;-50
2023/11/17 05:32:43;;;;;;;0.90;0.30;;;7.20;99.90;;;;;;5115503;28;20773;-53
2023/11/17 05:35:11;;;;;;;0.40;0.30;;;7.20;99.90;;;;;;5114046;28;20420;-50
2023/11/17 05:37:39;;;;;;;0.70;0.30;;;7.40;99.90;;;;;;5114531;28;20432;-47
2023/11/17 05:40:07;;;;;;;0.70;0.22;;;7.10;99.90;;;;;;5111985;28;20446;-48
2023/11/17 05:42:36;;;;;;;1.20;0.30;;;7.00;99.90;;;;;;5112694;28;20420;-47
2023/11/17 05:45:05;;;;;;;0.60;0.30;;;6.90;99.90;;;;;;5113459;28;20428;-50
2023/11/17 05:47:32;;;;;;;0.40;0.30;;;6.80;99.90;;;;;;5112978;28;20514;-51
2023/11/17 05:50:02;;;;;;;0.50;0.20;;;6.70;99.90;;;;;;5112994;28;20463;-49
2023/11/17 05:52:29;;;;;;;1.00;0.30;;;6.70;99.90;;;;;;5110856;28;20785;-50
2023/11/17 05:54:56;;;;;;;0.60;0.30;;;6.90;99.90;;;;;;5111778;28;20515;-49
2023/11/17 05:57:23;;;;;;;0.70;0.30;;;6.90;99.90;;;;;;5112289;28;20440;-51
2023/11/17 05:59:53;;;;;;;0.50;0.30;;;6.90;99.90;;;;;;5112584;28;20518;-48
2023/11/17 06:02:21;;;;;;;0.40;0.30;;;6.90;99.90;;;;;;5115117;28;20747;-50
2023/11/17 06:04:48;;;;;;;0.63;0.30;;;6.80;99.90;;;;;;5117288;28;20717;-53
2023/11/17 06:07:16;;;;;;;1.50;0.30;;;6.70;99.90;;;;;;5117770;28;20414;-51
2023/11/17 06:09:44;;;;;;;0.55;0.30;;;6.60;99.90;;;;;;5117136;28;20420;-54
2023/11/17 06:12:14;;;;;;;0.40;0.30;;;6.60;99.90;;;;;;5117405;28;20423;-50
2023/11/17 06:14:42;;;;;;;0.70;0.30;;;6.80;99.90;;;;;;5116509;27;20511;-51
2023/11/17 06:17:11;;;;;;;0.65;0.30;;;6.80;99.90;;;;;;5116914;28;20434;-51
2023/11/17 06:19:39;;;;;;;0.80;0.40;;;6.70;99.90;;;;;;5116692;28;20510;-54
2023/11/17 06:22:07;;;;;;;0.70;0.32;;;6.70;99.90;;;;;;5117053;28;20412;-48
2023/11/17 06:24:36;;;;;;;1.05;0.30;;;7.00;99.90;;;;;;5117054;28;20423;-51
2023/11/17 06:27:04;;;;;;;1.10;0.30;;;7.30;99.90;;;;;;5118106;28;20408;-50
2023/11/17 06:29:31;;;;;;;0.60;0.30;;;7.40;99.90;;;;;;5116784;28;20481;-51
2023/11/17 06:31:58;;;;;;;1.10;0.40;;;7.30;99.90;;;;;;5116288;28;20424;-52
2023/11/17 06:34:25;;;;;;;0.50;0.27;;;7.50;99.90;;;;;;5097826;28;20898;-51
2023/11/17 06:36:52;;;;;;;1.00;0.30;;;7.30;99.90;;;;;;5093268;28;20959;-52
2023/11/17 06:39:21;;;;;;;1.40;0.30;;;7.20;99.90;;;;;;5090693;28;20435;-52
2023/11/17 06:41:51;;;;;;;1.00;0.30;;;7.50;99.90;;;;;;5092800;28;20437;-47
2023/11/17 06:44:21;;;;;;;0.70;0.30;;;7.50;99.90;;;;;;5095622;28;20479;-52
2023/11/17 06:46:50;;;;;;;1.10;0.40;;;7.30;99.90;;;;;;5093639;28;20421;-51
2023/11/17 06:49:19;;;;;;;1.08;0.40;;;7.40;99.90;;;;;;5090171;28;20449;-50
2023/11/17 06:51:48;;;;;;;0.70;0.40;;;7.60;99.90;;;;;;5090018;28;20587;-49
2023/11/17 06:54:15;;;;;;;0.60;0.30;;;7.70;99.90;;;;;;5090676;28;20445;-52
2023/11/17 06:56:44;;;;;;;0.70;0.30;;;7.70;99.90;;;;;;5093671;28;20466;-50
2023/11/17 06:59:14;;;;;;;0.70;0.40;;;7.80;99.90;;;;;;5090854;28;20882;-50
2023/11/17 07:01:43;;;;;;;0.50;0.30;;;7.60;99.90;;;;;;5090057;28;20429;-53
2023/11/17 07:04:12;;;;;;;0.70;0.40;;;7.60;99.90;;;;;;5088532;28;20778;-52
2023/11/17 07:06:40;;;;;;;1.10;0.30;;;7.40;99.90;;;;;;5087122;28;20859;-49
2023/11/17 07:09:16;;;;;;;0.65;0.30;;;7.40;99.90;;;;;;5094716;28;20847;-53
2023/11/17 07:11:44;;;;;;;1.40;0.40;;;7.50;99.90;;;;;;5089029;28;20441;-52
2023/11/17 07:14:12;;;;;;;0.70;0.40;;;7.50;99.90;;;;;;5084462;28;20466;-53
2023/11/17 07:16:41;;;;;;;0.77;0.40;;;7.50;99.90;;;;;;5095145;28;20426;-50
2023/11/17 07:19:08;;;;;;;0.60;0.40;;;7.60;99.90;;;;;;5096177;28;20526;-50
2023/11/17 07:21:37;;;;;;;1.00;0.40;;;7.50;99.90;;;;;;5095257;28;20480;-49
2023/11/17 07:24:05;;;;;;;0.80;0.40;;;7.90;99.90;;;;;;5085715;28;20450;-52
2023/11/17 07:26:33;;;;;;;0.77;0.40;;;8.10;99.90;;;;;;5090358;28;20426;-50
2023/11/17 07:29:01;;;;;;;0.77;0.32;;;8.00;99.90;;;;;;5082050;28;20718;-50
2023/11/17 07:31:37;;;;;;;1.40;0.40;;;7.90;99.90;;;;;;5092588;28;20425;-51
2023/11/17 07:34:05;;;;;;;0.90;0.30;;;7.80;99.90;;;;;;5092522;28;20422;-52
2023/11/17 07:36:32;;;;;;;0.73;0.40;;;7.50;99.90;;;;;;5092928;28;20445;-47
2023/11/17 07:39:02;;;;;;;0.77;0.40;;;7.50;99.90;;;;;;5093147;28;20426;-48
2023/11/17 07:41:29;;;;;;;0.75;0.30;;;7.30;99.90;;;;;;5093480;28;20786;-53
2023/11/17 07:43:57;;;;;;;1.10;0.38;;;7.00;99.90;;;;;;5087376;28;20864;-51
2023/11/17 07:46:25;;;;;;;0.90;0.30;;;7.20;99.90;;;;;;5093596;28;20487;-49
2023/11/17 07:48:53;;;;;;;1.00;0.40;;;7.10;99.90;;;;;;5093307;28;20535;-53
2023/11/17 07:51:21;;;;;;;1.05;0.50;;;7.50;99.90;;;;;;5093794;28;20421;-53
2023/11/17 07:53:49;;;;;;;1.10;0.40;;;7.30;99.90;;;;;;5095167;28;20453;-52
2023/11/17 07:56:16;;;;;;;0.80;0.40;;;7.20;99.90;;;;;;5092442;28;20837;-52
2023/11/17 07:58:43;;;;;;;1.38;0.40;;;7.00;99.90;;;;;;5085216;28;20917;-48
2023/11/17 08:01:10;;;;;;;0.70;0.40;;;7.00;99.90;;;;;;5093387;28;20413;-52
2023/11/17 08:03:38;;;;;;;0.70;0.40;;;6.80;99.90;;;;;;5093383;28;20430;-54
2023/11/17 08:06:07;;;;;;;0.70;0.40;;;6.80;99.90;;;;;;5091971;28;20432;-52
2023/11/17 08:08:34;;;;;;;0.55;0.30;;;6.70;99.90;;;;;;5092957;28;20702;-51
2023/11/17 08:11:01;;;;;;;0.80;0.40;;;6.60;99.90;;;;;;5091747;28;20705;-51
2023/11/17 08:13:29;;;;;;;0.70;0.40;;;6.50;99.90;;;;;;5082496;28;20843;-52
2023/11/17 08:15:57;;;;;;;0.73;0.30;;;6.50;99.90;;;;;;5091748;28;20432;-57
2023/11/17 08:18:24;;;;;;;0.60;0.30;;;6.60;99.90;;;;;;5093406;28;20528;-53
2023/11/17 08:20:52;;;;;;;0.70;0.30;;;6.50;99.90;;;;;;5080094;28;20442;-54
2023/11/17 08:23:20;;;;;;;0.90;0.40;;;6.60;99.90;;;;;;5092584;28;20425;-50
2023/11/17 08:25:48;;;;;;;0.80;0.30;;;6.80;99.90;;;;;;5091878;28;20798;-53
2023/11/17 08:28:16;;;;;;;1.30;0.40;;;6.80;99.90;;;;;;5093101;28;20402;-50
2023/11/17 08:30:43;;;;;;;1.00;0.40;;;6.80;99.90;;;;;;5094001;28;20426;-53
2023/11/17 08:33:10;;;;;;;1.40;0.40;;;6.90;99.90;;;;;;5094484;28;20422;-53
2023/11/17 08:35:38;;;;;;;0.80;0.32;;;7.00;99.90;;;;;;5093227;28;20425;-50
2023/11/17 08:38:06;;;;;;;1.07;0.40;;;7.00;99.90;;;;;;5091920;28;20430;-52
2023/11/17 08:40:34;;;;;;;1.03;0.40;;;7.10;99.90;;;;;;5090411;28;20476;-53
2023/11/17 08:43:03;;;;;;;0.80;0.50;;;7.10;99.90;;;;;;5092799;28;20417;-50
2023/11/17 08:45:30;;;;;;;0.93;0.60;;;7.10;99.90;;;;;;5093601;28;20868;-51
2023/11/17 08:48:01;;;;;;;0.90;0.40;;;7.20;99.90;;;;;;5094306;28;20422;-54
2023/11/17 08:50:28;;;;;;;0.90;0.57;;;7.20;99.90;;;;;;5094841;28;20426;-53
2023/11/17 08:52:57;;;;;;;0.70;0.40;;;7.20;99.90;;;;;;5077621;28;20421;-50
2023/11/17 08:55:27;;;;;;;1.40;0.50;;;7.90;99.90;;;;;;5093357;28;20845;-56
2023/11/17 08:57:56;;;;;;;0.80;0.40;;;8.00;99.90;;;;;;5091842;28;20836;-54
2023/11/17 09:00:25;;;;;;;0.70;0.40;;;7.70;99.90;;;;;;5092529;28;20414;-54
2023/11/17 09:02:54;;;;;;;0.80;0.40;;;7.80;99.90;;;;;;5093339;28;20479;-52
2023/11/17 09:05:23;;;;;;;0.80;0.40;;;7.70;99.90;;;;;;5091945;28;20725;-56
2023/11/17 09:07:51;;;;;;;0.80;0.40;;;7.60;99.90;;;;;;5090906;28;20410;-55
2023/11/17 09:10:20;;;;;;;0.50;0.30;;;7.60;99.90;;;;;;5091712;28;20591;-55
2023/11/17 09:12:48;;;;;;;0.60;0.30;;;8.00;99.90;;;;;;5093074;28;20821;-55
2023/11/17 09:15:18;;;;;;;0.60;0.30;;;7.90;99.90;;;;;;5091359;28;20422;-55
2023/11/17 09:17:47;;;;;;;0.57;0.30;;;7.80;99.90;;;;;;5092674;28;20444;-54
2023/11/17 09:20:17;;;;;;;0.50;0.30;;;8.00;99.90;;;;;;5092712;28;20448;-53
2023/11/17 09:22:44;;;;;;;0.70;0.30;;;8.10;99.90;;;;;;5083177;28;20427;-56
2023/11/17 09:25:14;;;;;;;0.60;0.30;;;8.50;99.90;;;;;;5094018;28;20417;-54
2023/11/17 09:27:42;;;;;;;0.60;0.30;;;8.50;99.90;;;;;;5092479;28;20856;-54
2023/11/17 09:30:14;;;;;;;0.60;0.32;;;8.40;99.90;;;;;;5093136;28;20429;-54
2023/11/17 09:32:44;;;;;;;0.60;0.30;;;8.30;99.90;;;;;;5077720;28;20801;-53
2023/11/17 09:35:15;;;;;;;1.00;0.30;;;8.50;99.90;;;;;;5089226;28;20433;-54
2023/11/17 09:37:50;;;;;;;0.52;0.30;;;8.70;99.90;;;;;;5094638;28;20803;-57
2023/11/17 09:40:20;;;;;;;0.90;0.30;;;8.60;99.90;;;;;;5081163;28;20724;-57
2023/11/17 09:42:51;;;;;;;0.50;0.20;;;8.60;99.90;;;;;;5082278;28;20442;-56
2023/11/17 09:45:24;;;;;;;0.47;0.20;;;8.80;99.90;;;;;;5092716;28;20431;-55
2023/11/17 09:47:54;;;;;;;1.20;0.30;;;8.60;99.90;;;;;;5079674;28;20458;-56
2023/11/17 09:50:23;;;;;;;0.50;0.30;;;8.40;99.90;;;;;;5089757;28;20456;-57
2023/11/17 09:52:52;;;;;;;0.50;0.20;;;8.80;99.90;;;;;;5098712;28;20943;-57
2023/11/17 09:55:22;;;;;;;0.40;0.20;;;8.90;99.90;;;;;;5106081;28;20800;-56
2023/11/17 09:57:53;;;;;;;0.60;0.30;;;8.70;99.90;;;;;;5092539;28;20433;-57
2023/11/17 10:00:27;;;;;;;0.50;0.30;;;8.70;99.90;;;;;;5095536;28;20875;-57
2023/11/17 10:02:59;;;;;;;1.60;0.30;;;8.60;99.90;;;;;;5093978;28;20874;-57
2023/11/17 10:05:28;;;;;;;0.45;0.30;;;8.80;99.90;;;;;;5092185;28;20437;-58
2023/11/17 10:07:57;;;;;;;0.60;0.30;;;9.00;99.90;;;;;;5094440;28;20429;-57
2023/11/17 10:10:26;;;;;;;0.50;0.20;;;9.20;99.90;;;;;;5093769;28;20406;-55
2023/11/17 10:12:57;;;;;;;1.90;0.40;;;8.80;99.90;;;;;;5093715;28;20517;-57
2023/11/17 10:15:25;;;;;;;0.70;0.30;;;8.40;99.90;;;;;;5092916;28;20724;-57
2023/11/17 10:17:59;;;;;;;0.60;0.30;;;8.50;99.90;;;;;;5093043;28;20860;-57
2023/11/17 10:20:28;;;;;;;0.40;0.20;;;8.50;99.90;;;;;;5094660;28;20502;-55
2023/11/17 10:22:56;;;;;;;0.40;0.20;;;9.10;99.90;;;;;;5077781;28;20426;-57
2023/11/17 10:25:24;;;;;;;0.50;0.30;;;9.00;99.90;;;;;;5092486;28;20455;-57
2023/11/17 10:27:52;;;;;;;0.60;0.30;;;9.00;99.90;;;;;;5094431;28;20420;-58
2023/11/17 10:30:20;;;;;;;0.50;0.20;;;9.00;99.90;;;;;;5092828;28;20418;-57
2023/11/17 10:32:54;;;;;;;0.90;0.20;;;9.20;99.90;;;;;;5090691;28;20426;-58
2023/11/17 10:35:25;;;;;;;0.40;0.20;;;9.40;99.90;;;;;;5087542;28;20740;-57
2023/11/17 10:37:55;;;;;;;0.60;0.30;;;9.20;99.90;;;;;;5092670;28;20441;-57
2023/11/17 10:40:27;;;;;;;0.90;0.30;;;9.10;99.90;;;;;;5093481;28;20426;-58
2023/11/17 10:43:07;;;;;;;0.50;0.30;;;9.00;99.90;;;;;;5078761;28;20426;-58
2023/11/17 10:45:35;;;;;;;1.40;0.22;;;9.00;99.90;;;;;;5094050;28;20433;-59
2023/11/17 10:48:06;;;;;;;2.05;0.40;;;9.00;99.90;;;;;;5092261;28;20528;-59
2023/11/17 10:50:35;;;;;;;1.35;0.40;;;8.80;99.90;;;;;;5091831;28;20425;-59
2023/11/17 10:53:19;;;;;;;1.10;0.30;;;9.00;99.90;;;;;;5089655;28;20793;-59
2023/11/17 10:55:47;;;;;;;0.88;0.35;;;9.20;99.90;;;;;;5092847;28;20767;-58
2023/11/17 10:58:15;;;;;;;0.80;0.50;;;9.20;61.80;;;;;;5091448;28;20460;-59
2023/11/17 11:00:44;;;;;;;0.70;0.30;;;9.10;99.90;;;;;;5091421;28;20444;-59
2023/11/17 11:03:13;;;;;;;0.50;0.30;;;8.90;99.90;;;;;;5093928;28;20428;-59
2023/11/17 11:05:42;;;;;;;0.40;0.20;;;8.80;99.90;;;;;;5094947;28;20537;-59
2023/11/17 11:08:17;;;;;;;0.60;0.30;;;8.80;99.90;;;;;;5094135;28;20426;-59
2023/11/17 11:10:53;;;;;;;0.60;0.30;;;8.90;99.90;;;;;;5094493;28;20425;-58
2023/11/17 11:13:28;;;;;;;0.40;0.20;;;9.30;99.90;;;;;;5090778;28;20445;-59
2023/11/17 11:16:05;;;;;;;1.50;0.30;;;9.50;49.50;;;;;;5083571;28;20515;-59
2023/11/17 11:18:36;;;;;;;0.70;0.30;;;9.20;99.90;;;;;;5091906;28;20860;-60
2023/11/17 11:21:08;;;;;;;0.50;0.20;;;8.90;99.90;;;;;;5094041;28;20440;-59
2023/11/17 11:23:36;;;;;;;0.40;0.20;;;8.70;99.90;;;;;;5094320;28;20867;-58
2023/11/17 11:26:05;;;;;;;0.60;0.30;;;8.70;99.90;;;;;;5088852;28;20854;-58
2023/11/17 11:28:33;;;;;;;0.50;0.20;;;8.80;99.90;;;;;;5090273;28;20464;-59
2023/11/17 11:31:01;;;;;;;1.05;0.20;;;9.10;99.90;;;;;;5087714;28;20694;-59
2023/11/17 11:33:30;;;;;;;0.40;0.20;;;9.30;99.90;;;;;;5094391;28;20431;-59
2023/11/17 11:35:58;;;;;;;0.40;0.20;;;9.30;99.90;;;;;;5090783;28;20434;-59
2023/11/17 11:38:28;;;;;;;0.30;0.20;;;9.50;99.90;;;;;;5093378;28;20521;-59
2023/11/17 11:40:56;;;;;;;0.40;0.20;;;9.40;99.90;;;;;;5093170;28;20517;-60
2023/11/17 11:43:27;;;;;;;0.50;0.20;;;9.40;99.90;;;;;;5087026;28;20434;-60
2023/11/17 11:45:55;;;;;;;0.60;0.30;;;9.30;99.90;;;;;;5089546;28;20432;-59
2023/11/17 11:48:25;;;;;;;0.30;0.20;;;9.30;99.90;;;;;;5101003;28;20542;-59
2023/11/17 11:50:54;;;;;;;0.40;0.20;;;9.50;99.90;;;;;;5086165;28;20434;-59
2023/11/17 11:53:33;;;;;;;0.33;0.20;;;9.50;99.90;;;;;;5092471;28;20868;-60
2023/11/17 11:56:11;;;;;;;0.40;0.20;;;9.40;99.90;;;;;;5098834;28;20428;-60
2023/11/17 11:58:42;;;;;;;0.50;0.15;;;9.20;99.90;;;;;;5092346;28;20437;-58
2023/11/17 12:01:10;;;;;;;0.55;0.30;;;9.30;99.90;;;;;;5078406;28;20548;-59
2023/11/17 12:03:37;;;;;;;0.40;0.20;;;9.50;99.90;;;;;;5075451;28;20860;-59
2023/11/17 12:06:05;;;;;;;0.40;0.20;;;9.40;99.90;;;;;;5073723;28;20433;-58
2023/11/17 12:08:34;;;;;;;0.40;0.20;;;9.30;99.90;;;;;;5082635;28;20440;-60
2023/11/17 12:11:11;;;;;;;0.40;0.20;;;9.30;99.90;;;;;;5097641;28;20848;-61
2023/11/17 12:13:43;;;;;;;0.40;0.20;;;9.20;99.90;;;;;;5083548;28;20862;-60
2023/11/17 12:16:14;;;;;;;0.40;0.20;;;9.40;99.90;;;;;;5083457;28;20495;-60
2023/11/17 12:18:44;;;;;;;0.40;0.20;;;9.30;99.90;;;;;;5093420;28;20430;-61
2023/11/17 12:21:16;;;;;;;0.45;0.20;;;9.30;99.90;;;;;;5099659;28;20442;-60
2023/11/17 12:23:49;;;;;;;0.40;0.20;;;9.60;99.90;;;;;;5090655;28;20438;-61
2023/11/17 12:26:18;;;;;;;0.30;0.20;;;9.80;99.90;;;;;;5091775;28;20429;-59
2023/11/17 12:28:46;;;;;;;0.70;0.20;;;9.40;99.90;;;;;;5090737;28;20802;-59
2023/11/17 12:31:14;;;;;;;0.60;0.20;;;9.20;99.90;;;;;;5102331;28;20440;-60
2023/11/17 12:33:42;;;;;;;0.40;0.20;;;9.10;99.90;;;;;;5091720;28;20440;-60
2023/11/17 12:36:13;;;;;;;0.40;0.20;;;9.20;99.90;;;;;;5087746;28;20460;-61
2023/11/17 12:38:42;;;;;;;0.70;0.20;;;9.30;99.90;;;;;;5101823;28;20424;-60
2023/11/17 12:41:11;;;;;;;0.43;0.20;;;9.40;99.90;;;;;;5098447;28;20446;-60
2023/11/17 12:43:39;;;;;;;0.40;0.10;;;9.50;99.90;;;;;;5091798;28;20424;-61
2023/11/17 12:46:08;;;;;;;0.40;0.20;;;9.40;99.90;;;;;;5094712;28;20699;-63
2023/11/17 12:48:39;;;;;;;0.40;0.10;;;9.50;99.90;;;;;;5084099;28;20437;-61
2023/11/17 12:51:07;;;;;;;0.30;0.10;;;9.40;99.90;;;;;;5086324;28;20904;-61
2023/11/17 12:53:40;;;;;;;0.40;0.10;;;9.40;99.90;;;;;;5093367;28;20878;-60
2023/11/17 12:56:12;;;;;;;0.40;0.15;;;9.20;99.90;;;;;;5087880;28;20438;-60
2023/11/17 12:58:43;;;;;;;0.40;0.10;;;9.00;99.90;;;;;;5093628;28;20429;-59
2023/11/17 13:01:14;;;;;;;0.40;0.20;;;8.90;99.90;;;;;;5092891;28;20429;-59
2023/11/17 13:03:42;;;;;;;0.35;0.20;;;9.10;99.90;;;;;;5098690;28;20436;-59
2023/11/17 13:06:32;;;;;;;0.50;0.20;;;8.90;99.90;;;;;;5106470;28;20999;-60
2023/11/17 13:09:00;;;;;;;0.40;0.10;;;9.00;99.90;;;;;;5087687;28;20950;-59